Time;durP1;ratioP1;P1;durP2;ratioP2;P2;SDS_P1;SDS_P2;PMS_P1;PMS_P2;Temp;Humidity;BMP_temperature;BMP_pressure;BME280_temperature;BME280_humidity;BME280_pressure;Samples;Min_cycle;Max_cycle;Signal;HPM_P1;HPM_P2
2022/04/23 00:01:09;;;;;;;28.70;23.60;;;8.30;96.60;;;;;;4961547;28;20406;-64
2022/04/23 00:03:35;;;;;;;33.97;26.30;;;8.30;96.80;;;;;;4977183;28;20541;-64
2022/04/23 00:06:01;;;;;;;36.70;27.17;;;8.30;96.70;;;;;;4976966;28;20280;-64
2022/04/23 00:08:27;;;;;;;31.70;25.63;;;8.30;96.70;;;;;;4980495;28;20177;-64
2022/04/23 00:10:53;;;;;;;32.37;24.23;;;8.30;96.70;;;;;;4981208;28;20438;-64
2022/04/23 00:13:19;;;;;;;30.00;24.87;;;8.30;96.80;;;;;;4981717;28;20262;-64
2022/04/23 00:15:45;;;;;;;31.20;23.50;;;8.30;96.80;;;;;;4997550;28;20406;-67
2022/04/23 00:18:10;;;;;;;33.00;26.33;;;8.30;96.70;;;;;;4981475;28;20441;-66
2022/04/23 00:20:37;;;;;;;34.57;26.37;;;8.30;96.80;;;;;;4981863;28;20197;-67
2022/04/23 00:23:04;;;;;;;35.37;27.63;;;8.30;96.70;;;;;;4994134;28;20173;-66
2022/04/23 00:25:30;;;;;;;31.50;24.73;;;8.20;96.60;;;;;;4993666;28;20481;-66
2022/04/23 00:27:56;;;;;;;33.17;25.07;;;8.20;96.70;;;;;;4980946;28;20417;-67
2022/04/23 00:30:22;;;;;;;28.73;24.03;;;8.30;96.80;;;;;;4981514;28;20440;-66
2022/04/23 00:32:48;;;;;;;40.53;27.63;;;8.30;96.80;;;;;;4980837;28;20212;-67
2022/04/23 00:35:14;;;;;;;37.70;27.87;;;8.30;96.90;;;;;;4996258;28;20177;-66
2022/04/23 00:37:41;;;;;;;34.47;26.07;;;8.30;96.80;;;;;;4980763;28;20279;-64
2022/04/23 00:40:08;;;;;;;37.00;27.40;;;8.30;96.70;;;;;;4981088;28;20453;-64
2022/04/23 00:42:55;;;;;;;33.17;25.03;;;8.30;96.80;;;;;;4996929;28;20442;-64
2022/04/23 00:45:22;;;;;;;37.20;28.40;;;8.30;96.80;;;;;;4996638;28;20442;-64
2022/04/23 00:47:49;;;;;;;37.87;27.13;;;8.30;96.70;;;;;;4997181;28;20438;-65
2022/04/23 00:50:15;;;;;;;38.83;29.67;;;8.20;96.60;;;;;;4979960;28;20463;-65
2022/04/23 00:52:41;;;;;;;31.47;25.50;;;8.30;96.70;;;;;;4980513;28;20473;-65
2022/04/23 00:55:08;;;;;;;33.30;26.23;;;8.30;96.80;;;;;;4980231;28;20410;-64
2022/04/23 00:57:35;;;;;;;34.13;26.93;;;8.30;96.80;;;;;;4994680;28;20486;-64
2022/04/23 01:00:04;;;;;;;33.43;25.27;;;8.30;96.80;;;;;;4988072;28;20471;-64
2022/04/23 01:02:30;;;;;;;37.00;29.07;;;8.30;96.80;;;;;;4980395;28;20434;-64
2022/04/23 01:04:55;;;;;;;36.03;27.30;;;8.30;96.70;;;;;;4980123;28;20504;-64
2022/04/23 01:07:21;;;;;;;32.20;24.27;;;8.30;96.70;;;;;;4980518;28;20211;-64
2022/04/23 01:09:48;;;;;;;34.90;26.30;;;8.20;96.70;;;;;;4964597;28;20242;-66
2022/04/23 01:12:16;;;;;;;34.60;27.27;;;8.30;96.70;;;;;;4995826;28;20464;-66
2022/04/23 01:15:02;;;;;;;32.90;26.20;;;8.20;96.80;;;;;;4980517;28;20460;-66
2022/04/23 01:17:28;;;;;;;40.50;28.33;;;8.20;96.80;;;;;;4974850;28;20440;-66
2022/04/23 01:19:54;;;;;;;41.13;28.37;;;8.10;96.70;;;;;;4979876;28;20456;-66
2022/04/23 01:22:23;;;;;;;38.80;28.97;;;8.10;96.70;;;;;;4979506;28;20196;-66
2022/04/23 01:24:51;;;;;;;41.57;30.63;;;8.10;96.70;;;;;;4980121;28;20240;-65
2022/04/23 01:27:17;;;;;;;33.07;25.87;;;8.20;96.80;;;;;;4979827;28;20441;-63
2022/04/23 01:29:43;;;;;;;45.00;32.87;;;8.20;96.90;;;;;;4979751;28;20442;-62
2022/04/23 01:32:09;;;;;;;37.30;29.07;;;8.20;96.90;;;;;;4979911;28;20528;-62
2022/04/23 01:34:34;;;;;;;35.53;26.87;;;8.20;96.90;;;;;;4963564;28;20199;-63
2022/04/23 01:37:00;;;;;;;42.40;29.87;;;8.20;96.90;;;;;;4980226;28;20279;-63
2022/04/23 01:39:25;;;;;;;34.20;27.53;;;8.20;97.00;;;;;;4979491;28;20282;-64
2022/04/23 01:41:51;;;;;;;43.83;30.73;;;8.20;97.00;;;;;;4979114;28;20199;-64
2022/04/23 01:44:17;;;;;;;43.03;31.67;;;8.20;96.90;;;;;;4979779;28;20188;-64
2022/04/23 01:46:42;;;;;;;36.03;26.87;;;8.20;96.70;;;;;;4979948;28;20247;-64
2022/04/23 01:49:08;;;;;;;39.67;29.00;;;8.10;96.70;;;;;;4979660;28;20177;-64
2022/04/23 01:51:34;;;;;;;38.03;28.63;;;8.10;96.80;;;;;;4979317;28;20259;-64
2022/04/23 01:53:59;;;;;;;40.63;26.83;;;8.10;96.80;;;;;;4979566;28;20198;-64
2022/04/23 01:56:25;;;;;;;37.87;26.53;;;8.10;96.80;;;;;;4979828;28;20284;-64
2022/04/23 01:58:51;;;;;;;37.07;26.50;;;8.20;96.90;;;;;;4979524;28;20192;-64
2022/04/23 02:01:17;;;;;;;37.23;27.97;;;8.20;97.00;;;;;;4959816;28;20196;-64
2022/04/23 02:03:43;;;;;;;42.50;30.07;;;8.20;97.00;;;;;;4993661;28;20251;-64
2022/04/23 02:06:09;;;;;;;38.77;26.93;;;8.20;96.90;;;;;;4972350;28;20631;-64
2022/04/23 02:08:34;;;;;;;35.33;27.53;;;8.10;96.80;;;;;;4959847;28;20430;-64
2022/04/23 02:11:00;;;;;;;40.87;28.73;;;8.10;96.80;;;;;;4970978;28;20192;-64
2022/04/23 02:13:27;;;;;;;31.27;23.93;;;8.10;96.80;;;;;;4979353;28;20184;-64
2022/04/23 02:15:53;;;;;;;36.00;26.30;;;8.10;96.90;;;;;;4978874;28;20227;-64
2022/04/23 02:18:21;;;;;;;39.17;28.37;;;8.10;97.00;;;;;;4979213;28;20462;-63
2022/04/23 02:20:47;;;;;;;43.57;31.03;;;8.10;97.00;;;;;;4979392;28;20196;-64
2022/04/23 02:23:13;;;;;;;39.47;27.83;;;8.10;97.00;;;;;;4979472;28;20433;-64
2022/04/23 02:25:38;;;;;;;40.87;28.77;;;8.10;96.90;;;;;;4978948;28;20613;-63
2022/04/23 02:28:05;;;;;;;41.23;29.60;;;8.10;97.00;;;;;;4978726;28;20341;-63
2022/04/23 02:30:32;;;;;;;34.37;26.17;;;8.10;97.00;;;;;;4978465;28;20197;-63
2022/04/23 02:32:58;;;;;;;40.77;28.77;;;8.20;97.10;;;;;;4994942;28;20466;-63
2022/04/23 02:35:24;;;;;;;40.30;29.27;;;8.10;97.10;;;;;;4994083;28;20444;-63
2022/04/23 02:37:53;;;;;;;43.93;30.07;;;8.10;97.00;;;;;;4982065;28;20410;-63
2022/04/23 02:40:19;;;;;;;36.67;24.93;;;8.20;97.00;;;;;;4983526;28;20441;-63
2022/04/23 02:42:44;;;;;;;40.00;28.30;;;8.20;97.00;;;;;;4978930;28;20421;-65
2022/04/23 02:45:13;;;;;;;40.53;29.27;;;8.20;97.10;;;;;;4978620;28;20193;-64
2022/04/23 02:47:47;;;;;;;36.87;27.80;;;8.20;97.10;;;;;;4979392;28;20184;-64
2022/04/23 02:50:14;;;;;;;39.97;27.70;;;8.20;97.10;;;;;;4994005;28;20441;-65
2022/04/23 02:52:44;;;;;;;39.30;28.10;;;8.20;97.00;;;;;;4994522;28;20672;-64
2022/04/23 02:55:11;;;;;;;38.03;28.20;;;8.20;97.00;;;;;;4978559;28;20434;-64
2022/04/23 02:57:37;;;;;;;39.73;29.23;;;8.20;97.00;;;;;;4994539;28;20430;-64
2022/04/23 03:00:05;;;;;;;34.57;25.37;;;8.20;97.10;;;;;;4978407;28;20444;-64
2022/04/23 03:02:35;;;;;;;37.23;25.50;;;8.10;97.10;;;;;;4994942;28;20403;-65
2022/04/23 03:05:01;;;;;;;37.87;28.07;;;8.10;97.10;;;;;;4979219;28;20429;-65
2022/04/23 03:07:30;;;;;;;39.87;27.97;;;8.20;97.20;;;;;;4978131;28;20438;-65
2022/04/23 03:09:56;;;;;;;37.67;26.93;;;8.20;97.10;;;;;;4978887;28;20287;-65
2022/04/23 03:12:22;;;;;;;36.10;24.67;;;8.10;97.10;;;;;;4977345;28;20548;-65
2022/04/23 03:14:48;;;;;;;41.83;29.30;;;8.10;97.00;;;;;;4978071;28;20180;-65
2022/04/23 03:17:13;;;;;;;39.47;26.47;;;8.10;97.10;;;;;;4978398;28;20426;-65
2022/04/23 03:19:39;;;;;;;42.63;28.33;;;8.20;97.10;;;;;;4978739;28;20182;-65
2022/04/23 03:22:05;;;;;;;44.23;30.43;;;8.20;97.20;;;;;;4977785;28;20270;-64
2022/04/23 03:24:30;;;;;;;39.73;27.67;;;8.20;97.20;;;;;;4977806;28;20266;-64
2022/04/23 03:26:56;;;;;;;38.07;25.77;;;8.20;97.20;;;;;;4978052;28;20192;-64
2022/04/23 03:29:21;;;;;;;37.17;26.63;;;8.20;97.20;;;;;;4977680;28;20250;-64
2022/04/23 03:31:50;;;;;;;43.00;30.47;;;8.30;97.20;;;;;;4977224;28;20216;-65
2022/04/23 03:34:18;;;;;;;40.63;29.53;;;8.20;97.20;;;;;;4978105;28;20184;-65
2022/04/23 03:36:44;;;;;;;42.00;28.93;;;8.20;97.10;;;;;;4978275;28;20428;-65
2022/04/23 03:39:09;;;;;;;44.53;28.93;;;8.20;97.20;;;;;;4977909;28;20520;-65
2022/04/23 03:41:35;;;;;;;39.20;28.53;;;8.20;97.10;;;;;;4977446;28;20460;-65
2022/04/23 03:44:01;;;;;;;44.63;28.17;;;8.20;97.00;;;;;;4974460;28;20260;-65
2022/04/23 03:46:26;;;;;;;43.83;31.67;;;8.20;97.00;;;;;;4958503;28;20193;-66
2022/04/23 03:48:52;;;;;;;43.13;27.93;;;8.20;97.10;;;;;;4960128;28;20239;-66
2022/04/23 03:51:18;;;;;;;49.23;31.87;;;8.10;97.00;;;;;;4977869;28;20287;-66
2022/04/23 03:53:43;;;;;;;44.10;30.27;;;8.20;97.10;;;;;;4977973;28;20180;-66
2022/04/23 03:56:09;;;;;;;51.73;34.27;;;8.20;97.10;;;;;;4977355;28;20203;-66
2022/04/23 03:58:35;;;;;;;41.47;29.83;;;8.10;96.80;;;;;;4973984;28;20263;-66
2022/04/23 04:01:01;;;;;;;44.97;31.00;;;8.20;97.00;;;;;;4971953;28;20201;-67
2022/04/23 04:03:27;;;;;;;43.53;30.97;;;8.10;97.00;;;;;;4981860;28;20430;-68
2022/04/23 04:05:53;;;;;;;46.23;31.90;;;8.20;97.00;;;;;;4976984;28;20256;-66
2022/04/23 04:08:20;;;;;;;43.03;30.83;;;8.20;97.00;;;;;;4976397;28;20438;-64
2022/04/23 04:10:46;;;;;;;38.90;27.87;;;8.20;97.00;;;;;;4972604;28;20450;-65
2022/04/23 04:13:14;;;;;;;41.77;28.07;;;8.20;97.10;;;;;;4969020;28;20468;-64
2022/04/23 04:15:43;;;;;;;39.60;27.17;;;8.20;97.10;;;;;;4956506;28;20192;-64
2022/04/23 04:18:11;;;;;;;44.93;32.13;;;8.20;97.00;;;;;;4980216;28;20481;-66
2022/04/23 04:20:37;;;;;;;40.87;29.43;;;8.20;97.00;;;;;;4968156;28;20418;-68
2022/04/23 04:23:02;;;;;;;46.07;31.70;;;8.20;96.90;;;;;;4962603;28;20447;-68
2022/04/23 04:25:28;;;;;;;38.43;29.13;;;8.20;96.90;;;;;;4974788;28;20481;-68
2022/04/23 04:27:54;;;;;;;42.23;29.33;;;8.20;96.90;;;;;;4959249;28;20200;-68
2022/04/23 04:30:20;;;;;;;45.10;31.27;;;8.20;96.90;;;;;;4968484;28;20221;-68
2022/04/23 04:32:45;;;;;;;39.90;29.33;;;8.20;96.90;;;;;;4950701;28;20211;-68
2022/04/23 04:35:11;;;;;;;42.33;31.87;;;8.30;97.00;;;;;;4960872;28;20288;-69
2022/04/23 04:37:37;;;;;;;43.67;30.37;;;8.30;97.00;;;;;;4956336;28;20291;-69
2022/04/23 04:40:05;;;;;;;37.50;27.03;;;8.30;96.90;;;;;;4973361;28;20272;-69
2022/04/23 04:42:30;;;;;;;39.87;29.07;;;8.30;96.80;;;;;;4988924;28;20252;-68
2022/04/23 04:44:57;;;;;;;47.30;31.93;;;8.30;96.90;;;;;;4978774;28;20438;-69
2022/04/23 04:47:22;;;;;;;40.23;29.37;;;8.30;96.90;;;;;;4990423;28;20263;-69
2022/04/23 04:49:48;;;;;;;39.40;28.27;;;8.30;96.90;;;;;;4954812;28;20419;-69
2022/04/23 04:52:13;;;;;;;35.23;25.93;;;8.30;96.90;;;;;;4960381;28;20312;-68
2022/04/23 04:54:39;;;;;;;36.57;27.40;;;8.40;96.80;;;;;;4983772;28;20296;-69
2022/04/23 04:57:05;;;;;;;41.40;28.93;;;8.30;96.70;;;;;;4961254;28;20197;-69
2022/04/23 04:59:34;;;;;;;44.57;32.27;;;8.30;96.70;;;;;;4961320;28;20184;-69
2022/04/23 05:02:00;;;;;;;45.90;30.90;;;8.30;96.70;;;;;;4989895;28;20193;-69
2022/04/23 05:04:27;;;;;;;37.87;27.17;;;8.30;96.70;;;;;;4982287;28;20469;-69
2022/04/23 05:06:52;;;;;;;40.27;29.37;;;8.30;96.80;;;;;;4995049;28;20184;-69
2022/04/23 05:09:18;;;;;;;44.10;30.17;;;8.30;96.70;;;;;;4983060;28;20462;-69
2022/04/23 05:11:44;;;;;;;39.43;29.67;;;8.30;96.80;;;;;;4960909;28;20243;-69
2022/04/23 05:14:09;;;;;;;42.07;30.53;;;8.30;96.80;;;;;;4960821;28;20193;-69
2022/04/23 05:16:35;;;;;;;47.40;34.53;;;8.30;96.80;;;;;;4961233;28;20259;-69
2022/04/23 05:19:01;;;;;;;39.00;29.27;;;8.30;96.80;;;;;;4954522;28;20189;-69
2022/04/23 05:21:26;;;;;;;38.33;27.77;;;8.30;96.80;;;;;;4948957;28;20196;-69
2022/04/23 05:23:52;;;;;;;38.30;28.67;;;8.40;96.90;;;;;;4960959;28;20191;-69
2022/04/23 05:26:18;;;;;;;44.00;31.23;;;8.40;96.90;;;;;;4966502;28;20229;-68
2022/04/23 05:28:44;;;;;;;44.43;31.23;;;8.40;96.90;;;;;;4980257;28;20296;-69
2022/04/23 05:31:10;;;;;;;39.87;27.20;;;8.50;96.90;;;;;;4978042;28;20446;-69
2022/04/23 05:33:36;;;;;;;45.70;33.57;;;8.50;96.90;;;;;;4955300;28;20193;-69
2022/04/23 05:36:06;;;;;;;44.00;31.37;;;8.50;97.00;;;;;;4980596;28;20230;-69
2022/04/23 05:38:34;;;;;;;42.77;31.27;;;8.60;96.90;;;;;;4980271;28;20468;-69
2022/04/23 05:41:00;;;;;;;48.73;36.43;;;8.60;96.90;;;;;;4977850;28;20560;-69
2022/04/23 05:43:26;;;;;;;45.93;33.80;;;8.60;96.70;;;;;;4972641;28;20525;-69
2022/04/23 05:45:52;;;;;;;44.20;31.10;;;8.60;96.70;;;;;;4954268;28;20514;-69
2022/04/23 05:48:17;;;;;;;39.70;29.33;;;8.60;96.70;;;;;;4975930;28;20205;-69
2022/04/23 05:50:43;;;;;;;39.80;29.03;;;8.70;96.80;;;;;;4974512;28;20189;-69
2022/04/23 05:53:11;;;;;;;47.40;33.77;;;8.70;96.70;;;;;;4957302;28;20256;-69
2022/04/23 05:55:36;;;;;;;36.30;27.33;;;8.70;96.70;;;;;;4958762;28;20193;-69
2022/04/23 05:58:02;;;;;;;49.93;35.70;;;8.70;96.60;;;;;;4953156;28;20441;-69
2022/04/23 06:00:28;;;;;;;44.47;31.37;;;8.70;96.80;;;;;;4973852;28;20185;-69
2022/04/23 06:02:54;;;;;;;34.07;26.00;;;8.70;96.70;;;;;;4973301;28;20195;-69
2022/04/23 06:05:19;;;;;;;37.90;27.97;;;8.70;96.60;;;;;;4953831;28;20196;-68
2022/04/23 06:07:45;;;;;;;42.13;30.20;;;8.80;96.40;;;;;;4978800;28;20554;-69
2022/04/23 06:10:11;;;;;;;37.13;28.23;;;8.80;96.40;;;;;;4977516;28;20259;-69
2022/04/23 06:12:37;;;;;;;45.43;31.50;;;8.80;96.40;;;;;;4991530;28;20207;-69
2022/04/23 06:15:03;;;;;;;38.67;28.90;;;8.90;96.50;;;;;;4959391;28;20209;-69
2022/04/23 06:17:29;;;;;;;39.70;29.77;;;8.90;96.40;;;;;;4969017;28;20195;-69
2022/04/23 06:19:55;;;;;;;49.20;34.47;;;9.00;96.40;;;;;;4971772;28;20418;-69
2022/04/23 06:22:22;;;;;;;44.23;31.47;;;9.00;96.40;;;;;;4992986;28;20406;-69
2022/04/23 06:24:48;;;;;;;41.77;31.13;;;9.00;95.90;;;;;;4993045;28;20512;-69
2022/04/23 06:27:14;;;;;;;43.77;30.37;;;9.00;96.00;;;;;;4990602;28;20450;-69
2022/04/23 06:29:41;;;;;;;40.30;28.47;;;9.10;96.00;;;;;;4993485;28;20488;-69
2022/04/23 06:32:08;;;;;;;34.20;26.60;;;9.10;96.00;;;;;;4977635;28;20225;-69
2022/04/23 06:34:37;;;;;;;44.57;33.33;;;9.10;96.00;;;;;;4998685;28;20469;-70
2022/04/23 06:37:03;;;;;;;40.87;30.73;;;9.20;95.90;;;;;;4976954;28;20422;-69
2022/04/23 06:39:29;;;;;;;42.00;31.00;;;9.30;95.60;;;;;;4992114;28;20513;-68
2022/04/23 06:41:54;;;;;;;39.47;28.50;;;9.20;95.00;;;;;;4977717;28;20501;-70
2022/04/23 06:44:20;;;;;;;33.57;26.10;;;9.30;94.90;;;;;;4976151;28;20193;-69
2022/04/23 06:46:45;;;;;;;43.73;30.70;;;9.20;94.30;;;;;;4975347;28;20228;-66
2022/04/23 06:49:11;;;;;;;39.50;29.07;;;9.10;93.30;;;;;;4959100;28;20197;-70
2022/04/23 06:51:37;;;;;;;38.70;30.17;;;9.10;94.10;;;;;;4959499;28;20201;-69
2022/04/23 06:54:04;;;;;;;35.03;27.93;;;9.10;94.30;;;;;;4988492;28;20184;-69
2022/04/23 06:56:30;;;;;;;36.93;29.13;;;9.00;93.20;;;;;;4995651;28;20456;-69
2022/04/23 06:58:56;;;;;;;36.33;29.10;;;9.10;93.80;;;;;;4978065;28;20529;-69
2022/04/23 07:01:21;;;;;;;34.73;27.20;;;8.90;93.20;;;;;;4978252;28;20441;-69
2022/04/23 07:03:47;;;;;;;31.70;25.30;;;9.00;94.30;;;;;;4977954;28;20268;-70
2022/04/23 07:06:13;;;;;;;41.77;31.70;;;9.00;94.60;;;;;;4978682;28;20177;-69
2022/04/23 07:08:43;;;;;;;40.60;29.57;;;9.00;94.90;;;;;;4978502;28;20188;-69
2022/04/23 07:11:09;;;;;;;38.30;27.80;;;9.10;94.70;;;;;;4963122;28;20179;-69
2022/04/23 07:13:35;;;;;;;46.43;30.40;;;9.10;94.90;;;;;;4994498;28;20517;-69
2022/04/23 07:16:03;;;;;;;40.00;30.17;;;9.10;94.50;;;;;;4977998;28;20430;-69
2022/04/23 07:18:30;;;;;;;29.53;23.63;;;9.20;94.60;;;;;;4978147;28;20441;-70
2022/04/23 07:20:55;;;;;;;35.40;27.07;;;9.20;94.80;;;;;;4978114;28;20406;-69
2022/04/23 07:26:06;;;;;;;33.60;24.43;;;9.30;94.30;;;;;;4979700;28;20250;-70
2022/04/23 07:28:32;;;;;;;31.33;24.87;;;9.40;94.20;;;;;;4966238;28;20440;-69
2022/04/23 07:30:58;;;;;;;39.40;29.20;;;9.50;94.60;;;;;;4959716;28;20431;-67
2022/04/23 07:38:52;;;;;;;37.03;28.03;;;9.30;93.20;;;;;;4991885;28;20569;-66
2022/04/23 07:41:18;;;;;;;40.00;30.30;;;9.30;92.40;;;;;;4980932;28;20489;-71
2022/04/23 07:43:44;;;;;;;36.07;30.13;;;9.30;92.60;;;;;;5010036;28;20179;-71
2022/04/23 07:46:10;;;;;;;35.00;26.13;;;9.30;92.70;;;;;;4991302;28;20421;-71
2022/04/23 07:48:35;;;;;;;39.80;29.83;;;9.30;92.80;;;;;;4977784;28;20187;-71
2022/04/23 07:51:01;;;;;;;30.83;24.23;;;9.20;91.20;;;;;;4971722;28;20190;-71
2022/04/23 07:53:27;;;;;;;38.03;29.50;;;9.20;92.40;;;;;;4973589;28;20207;-71
2022/04/23 07:55:52;;;;;;;39.57;29.77;;;9.20;92.70;;;;;;4975333;28;20258;-70
2022/04/23 07:58:18;;;;;;;41.07;31.23;;;9.30;92.80;;;;;;4974890;28;20195;-71
2022/04/23 08:00:44;;;;;;;33.77;26.87;;;9.20;93.00;;;;;;4993527;28;20202;-69
2022/04/23 08:03:10;;;;;;;39.57;29.27;;;9.30;93.70;;;;;;4997482;28;20180;-68
2022/04/23 08:05:35;;;;;;;46.30;34.10;;;9.30;93.90;;;;;;4962783;28;20426;-69
2022/04/23 08:08:02;;;;;;;46.37;30.73;;;9.40;93.50;;;;;;4996735;28;20195;-69
2022/04/23 08:10:28;;;;;;;34.97;26.40;;;9.50;93.70;;;;;;4991119;28;20243;-65
2022/04/23 08:12:57;;;;;;;36.17;27.23;;;9.50;93.00;;;;;;4947677;28;20467;-65
2022/04/23 08:15:25;;;;;;;44.77;34.53;;;9.40;92.60;;;;;;4977993;28;20276;-68
2022/04/23 08:17:51;;;;;;;46.87;31.93;;;9.50;93.00;;;;;;4993671;28;20445;-67
2022/04/23 08:20:16;;;;;;;46.60;33.40;;;9.60;92.00;;;;;;4977287;28;20457;-67
2022/04/23 08:22:42;;;;;;;35.33;25.10;;;9.60;92.70;;;;;;4976722;28;20291;-63
2022/04/23 08:25:08;;;;;;;43.13;32.20;;;9.60;91.90;;;;;;4972640;28;20240;-68
2022/04/23 08:27:54;;;;;;;44.83;31.37;;;9.70;92.60;;;;;;4993624;28;20207;-68
2022/04/23 08:30:36;;;;;;;41.53;30.90;;;9.80;92.50;;;;;;4963443;28;20451;-69
2022/04/23 08:33:06;;;;;;;38.60;27.50;;;9.80;90.90;;;;;;4977959;28;20458;-69
2022/04/23 08:35:33;;;;;;;44.27;30.70;;;9.90;91.20;;;;;;4977674;28;20209;-69
2022/04/23 08:37:59;;;;;;;37.30;25.73;;;10.00;91.50;;;;;;4976526;28;20433;-67
2022/04/23 08:40:29;;;;;;;42.37;29.23;;;10.10;91.90;;;;;;4989560;28;20478;-68
2022/04/23 08:42:54;;;;;;;35.23;26.20;;;10.30;89.90;;;;;;4992068;28;20188;-67
2022/04/23 08:45:20;;;;;;;32.27;22.17;;;10.30;89.50;;;;;;4974388;28;20433;-66
2022/04/23 08:47:46;;;;;;;50.30;32.00;;;10.30;89.60;;;;;;4977580;28;20196;-66
2022/04/23 08:50:12;;;;;;;41.90;30.93;;;10.30;89.40;;;;;;4980490;28;20199;-66
2022/04/23 08:52:41;;;;;;;45.03;30.57;;;10.30;90.50;;;;;;4996791;28;20208;-66
2022/04/23 08:55:07;;;;;;;36.70;28.70;;;10.30;90.00;;;;;;4997546;28;20184;-67
2022/04/23 08:57:33;;;;;;;36.03;28.03;;;10.50;89.70;;;;;;4978954;28;20473;-67
2022/04/23 09:00:00;;;;;;;35.00;26.70;;;10.60;90.20;;;;;;4970254;28;20273;-68
2022/04/23 09:02:27;;;;;;;34.07;26.37;;;10.50;87.40;;;;;;4980380;28;20235;-67
2022/04/23 09:04:56;;;;;;;37.10;24.13;;;10.50;89.20;;;;;;4964846;28;20196;-67
2022/04/23 09:07:24;;;;;;;35.13;26.77;;;10.50;89.70;;;;;;4980616;28;20192;-67
2022/04/23 09:09:52;;;;;;;39.33;26.33;;;10.50;89.60;;;;;;4992260;28;20194;-67
2022/04/23 09:12:18;;;;;;;33.83;25.03;;;10.30;88.50;;;;;;4979714;28;20267;-67
2022/04/23 09:14:48;;;;;;;41.63;28.93;;;10.50;90.60;;;;;;4987903;28;20541;-67
2022/04/23 09:25:45;;;;;;;33.70;24.73;;;10.50;87.00;;;;;;4989897;28;20238;-67
2022/04/23 09:28:17;;;;;;;42.03;29.80;;;10.60;89.20;;;;;;4978441;28;20197;-66
2022/04/23 09:30:44;;;;;;;39.13;27.03;;;10.60;90.20;;;;;;4992055;28;20196;-66
2022/04/23 09:33:10;;;;;;;39.57;28.40;;;10.70;89.80;;;;;;4962185;28;20244;-66
2022/04/23 09:35:50;;;;;;;42.63;28.93;;;10.70;90.40;;;;;;4969279;28;20239;-67
2022/04/23 09:38:20;;;;;;;35.53;25.27;;;10.80;90.50;;;;;;4986844;28;20199;-67
2022/04/23 09:40:56;;;;;;;41.03;27.40;;;10.90;90.90;;;;;;4995300;28;20196;-67
2022/04/23 09:43:30;;;;;;;33.20;26.30;;;10.90;90.60;;;;;;4971520;28;20204;-67
2022/04/23 09:46:04;;;;;;;35.90;24.20;;;10.80;89.00;;;;;;4995300;28;20256;-67
2022/04/23 09:48:31;;;;;;;29.67;22.03;;;10.80;90.10;;;;;;4980030;28;20239;-67
2022/04/23 09:50:57;;;;;;;35.87;25.87;;;10.90;90.60;;;;;;4995715;28;20192;-67
2022/04/23 09:53:27;;;;;;;30.77;22.43;;;11.00;90.70;;;;;;4995449;28;20216;-67
2022/04/23 09:55:59;;;;;;;37.07;26.13;;;11.00;90.40;;;;;;4995402;28;20216;-67
2022/04/23 09:58:29;;;;;;;34.93;23.90;;;11.00;90.60;;;;;;4977152;28;20188;-67
2022/04/23 10:00:56;;;;;;;34.37;25.77;;;11.00;90.40;;;;;;4980566;28;20170;-67
2022/04/23 10:03:29;;;;;;;37.77;23.10;;;11.00;90.50;;;;;;4978396;28;20208;-67
2022/04/23 10:05:56;;;;;;;34.00;25.03;;;11.00;89.90;;;;;;5005743;28;20437;-67
2022/04/23 10:08:36;;;;;;;34.93;21.97;;;10.90;87.60;;;;;;4969472;28;20292;-67
2022/04/23 10:11:18;;;;;;;30.53;21.20;;;10.80;89.00;;;;;;4980679;28;20200;-68
2022/04/23 10:13:45;;;;;;;27.60;19.87;;;10.80;90.40;;;;;;4995400;28;20223;-68
2022/04/23 10:16:13;;;;;;;28.03;22.00;;;10.80;90.00;;;;;;4963177;28;20188;-68
2022/04/23 10:18:39;;;;;;;33.07;25.27;;;10.90;91.10;;;;;;4996042;28;20181;-66
2022/04/23 10:21:11;;;;;;;41.47;28.33;;;10.90;90.60;;;;;;4979246;28;20214;-66
2022/04/23 10:23:43;;;;;;;36.93;25.50;;;10.80;89.70;;;;;;4978536;28;20274;-67
2022/04/23 10:26:23;;;;;;;30.63;22.27;;;10.80;90.60;;;;;;4994601;28;20244;-68
2022/04/23 10:28:50;;;;;;;40.30;27.67;;;10.90;90.90;;;;;;4994690;28;20196;-66
2022/04/23 10:31:17;;;;;;;28.77;21.43;;;10.90;88.70;;;;;;4974262;28;20263;-68
2022/04/23 10:33:50;;;;;;;31.60;22.73;;;11.00;90.90;;;;;;4989632;28;20231;-68
2022/04/23 10:36:16;;;;;;;30.30;22.80;;;11.10;91.30;;;;;;4996140;28;20161;-68
2022/04/23 10:38:45;;;;;;;36.67;25.77;;;11.20;91.20;;;;;;4994457;28;20192;-67
2022/04/23 10:41:13;;;;;;;35.30;26.53;;;11.20;89.20;;;;;;4979086;28;20257;-66
2022/04/23 10:43:49;;;;;;;30.77;23.00;;;11.20;89.80;;;;;;4993449;28;20200;-69
2022/04/23 10:46:36;;;;;;;30.97;23.13;;;11.20;88.40;;;;;;4995676;28;20203;-68
2022/04/23 10:49:18;;;;;;;30.60;22.13;;;11.30;88.50;;;;;;4994053;28;20196;-69
2022/04/23 10:51:46;;;;;;;28.47;21.23;;;11.20;88.50;;;;;;4976100;28;20306;-67
2022/04/23 10:54:12;;;;;;;27.30;21.07;;;11.30;89.00;;;;;;4989535;28;20219;-70
2022/04/23 10:56:37;;;;;;;32.87;24.00;;;11.30;89.60;;;;;;4995083;28;20197;-66
2022/04/23 10:59:03;;;;;;;32.67;23.13;;;11.30;85.30;;;;;;4978333;28;20202;-70
2022/04/23 11:01:30;;;;;;;32.47;22.10;;;11.30;89.00;;;;;;4978313;28;20204;-70
2022/04/23 11:03:59;;;;;;;33.70;22.73;;;11.30;89.10;;;;;;4994574;28;20188;-69
2022/04/23 11:12:29;;;;;;;29.10;21.83;;;11.30;87.70;;;;;;4993263;28;20310;-70
2022/04/23 11:14:58;;;;;;;29.27;20.13;;;11.30;89.70;;;;;;4986728;28;20185;-69
2022/04/23 11:17:45;;;;;;;30.37;21.63;;;11.30;89.30;;;;;;4985479;28;20263;-69
2022/04/23 11:20:11;;;;;;;33.60;23.80;;;11.30;89.50;;;;;;4988312;28;20695;-70
2022/04/23 11:22:37;;;;;;;32.40;23.90;;;11.20;89.60;;;;;;4993045;28;20231;-69
2022/04/23 11:25:04;;;;;;;34.33;26.10;;;11.20;90.10;;;;;;4989113;28;20264;-69
2022/04/23 11:27:38;;;;;;;29.70;22.83;;;11.30;90.90;;;;;;4994942;28;20199;-70
2022/04/23 11:30:05;;;;;;;30.33;22.80;;;11.40;91.10;;;;;;4974044;28;20223;-70
2022/04/23 11:32:33;;;;;;;26.27;19.53;;;11.50;89.50;;;;;;4985735;28;20208;-70
2022/04/23 11:35:00;;;;;;;27.87;22.27;;;11.50;86.50;;;;;;4964509;28;20289;-70
2022/04/23 11:37:34;;;;;;;29.03;22.90;;;11.60;87.10;;;;;;4990806;28;20196;-70
2022/04/23 11:40:11;;;;;;;24.77;19.13;;;11.50;87.30;;;;;;4994633;28;20193;-71
2022/04/23 11:42:41;;;;;;;24.90;20.27;;;11.60;88.20;;;;;;4993943;28;20172;-71
2022/04/23 11:45:09;;;;;;;24.93;19.47;;;11.70;88.00;;;;;;4993509;28;20188;-71
2022/04/23 11:47:35;;;;;;;23.37;20.13;;;11.70;88.10;;;;;;4992330;28;20228;-71
2022/04/23 11:50:21;;;;;;;30.77;20.80;;;11.60;85.50;;;;;;4989962;28;20200;-71
2022/04/23 11:52:57;;;;;;;24.60;19.77;;;11.70;87.40;;;;;;4992663;28;20302;-71
2022/04/23 11:55:25;;;;;;;26.47;21.80;;;11.70;87.40;;;;;;4992562;28;20180;-71
2022/04/23 11:57:58;;;;;;;23.60;20.50;;;11.80;87.90;;;;;;5003735;28;20222;-72
2022/04/23 12:00:24;;;;;;;19.63;16.60;;;11.70;87.00;;;;;;5011487;28;20179;-71
2022/04/23 12:02:51;;;;;;;21.00;18.43;;;11.80;87.30;;;;;;5011318;28;20199;-71
2022/04/23 12:05:31;;;;;;;20.00;16.63;;;11.80;88.30;;;;;;4982811;28;20455;-72
2022/04/23 12:07:57;;;;;;;22.17;18.20;;;11.90;88.30;;;;;;5016154;28;20637;-71
2022/04/23 12:10:31;;;;;;;23.90;17.43;;;11.90;87.30;;;;;;4964765;28;20203;-71
2022/04/23 12:13:05;;;;;;;21.80;18.57;;;11.80;86.50;;;;;;4995789;28;20266;-71
2022/04/23 12:15:32;;;;;;;21.40;19.03;;;11.80;87.20;;;;;;4996122;28;20184;-71
2022/04/23 12:17:58;;;;;;;23.70;19.27;;;11.80;87.50;;;;;;4996790;28;20195;-71
2022/04/23 12:20:25;;;;;;;24.37;19.30;;;11.80;85.00;;;;;;4964239;28;20199;-70
2022/04/23 12:22:56;;;;;;;22.47;19.70;;;11.70;84.00;;;;;;4991227;28;20250;-63
2022/04/23 12:25:25;;;;;;;24.40;20.03;;;11.60;86.00;;;;;;4997279;28;20236;-66
2022/04/23 12:42:23;;;;;;;20.30;16.53;;;11.70;85.80;;;;;;4988677;28;20191;-68
2022/04/23 12:44:52;;;;;;;20.60;17.30;;;11.80;87.30;;;;;;4974121;28;20196;-69
2022/04/23 12:47:36;;;;;;;21.13;18.37;;;11.80;86.70;;;;;;4991163;28;20195;-69
2022/04/23 12:50:06;;;;;;;21.67;16.37;;;11.80;84.80;;;;;;4989965;28;20192;-69
2022/04/23 12:52:38;;;;;;;21.27;18.03;;;11.80;85.90;;;;;;4987441;28;20216;-69
2022/04/23 12:55:17;;;;;;;22.93;16.53;;;11.90;87.10;;;;;;4988640;28;20189;-69
2022/04/23 12:57:50;;;;;;;22.33;17.07;;;12.00;88.40;;;;;;4991565;28;20185;-70
2022/04/23 13:00:26;;;;;;;21.33;17.90;;;12.10;87.50;;;;;;4987606;28;20193;-70
2022/04/23 13:02:57;;;;;;;20.60;16.73;;;12.20;87.10;;;;;;5002761;28;20195;-71
2022/04/23 13:05:24;;;;;;;18.40;16.20;;;12.30;85.70;;;;;;4998898;28;20247;-70
2022/04/23 13:10:35;;;;;;;19.00;15.47;;;12.30;83.80;;;;;;4978412;28;20189;-70
2022/04/23 13:13:01;;;;;;;18.60;15.63;;;12.20;85.00;;;;;;4977873;28;20220;-70
2022/04/23 13:15:26;;;;;;;21.93;17.27;;;12.20;84.20;;;;;;4978411;28;20205;-70